Airport View

Enter AWOS ICAO identifier for current METAR.

ex. KFNL

KLEE 261153Z 31003KT 10SM CLR 27/24 A3011 RMK AO2 SLP195 T02670239 10267 20244 53010

26 Jun 2019 12:43

Frequency: 134.325

Phone: 352-787-1565

Other Area AWOS: KVVG - KINF - KORL - KOCF

TAF KLEE 261135Z 2612/2712 VRB03KT P6SM FEW050 SCT250 FM261500 04005KT P6SM FEW035 SCT250 FM262100 06008KT P6SM SCT045 SCT150 FM270100 VRB04KT P6SM FEW050 SCT250